Time;durP1;ratioP1;P1;durP2;ratioP2;P2;SDS_P1;SDS_P2;PMS_P1;PMS_P2;Temp;Humidity;BMP_temperature;BMP_pressure;BME280_temperature;BME280_humidity;BME280_pressure;Samples;Min_cycle;Max_cycle;Signal;HPM_P1;HPM_P2
2022/08/17 00:00:41;;;;;;;19.65;16.02;;;20.60;99.90;;;;;;5054833;28;20045;-82
2022/08/17 00:03:23;;;;;;;17.05;15.18;;;20.60;99.90;;;;;;5053680;28;20049;-82
2022/08/17 00:05:56;;;;;;;17.75;16.02;;;20.50;99.90;;;;;;5054887;28;20049;-81
2022/08/17 00:08:31;;;;;;;18.52;15.82;;;20.50;99.90;;;;;;5053273;28;20099;-81
2022/08/17 00:10:57;;;;;;;18.60;15.63;;;20.50;99.90;;;;;;5054840;28;20071;-81
2022/08/17 00:13:34;;;;;;;18.48;16.17;;;20.50;99.90;;;;;;5054654;28;20041;-81
2022/08/17 00:16:07;;;;;;;18.08;15.70;;;20.40;99.90;;;;;;5054478;28;20412;-81
2022/08/17 00:18:34;;;;;;;16.25;14.55;;;20.40;99.90;;;;;;5054699;28;20175;-81
2022/08/17 00:21:00;;;;;;;16.85;15.07;;;20.40;99.90;;;;;;5054493;28;20041;-81
2022/08/17 00:23:26;;;;;;;17.10;15.40;;;20.40;99.90;;;;;;5053541;28;20058;-81
2022/08/17 00:25:52;;;;;;;18.08;15.50;;;20.40;99.90;;;;;;5054227;28;20049;-82
2022/08/17 00:28:19;;;;;;;19.73;16.60;;;20.30;99.90;;;;;;5052967;28;20397;-80
2022/08/17 00:30:47;;;;;;;17.42;15.63;;;20.40;99.90;;;;;;5053076;28;20091;-80
2022/08/17 00:33:16;;;;;;;19.10;15.60;;;20.40;99.90;;;;;;5054263;28;20090;-80
2022/08/17 00:35:43;;;;;;;18.05;15.85;;;20.30;99.90;;;;;;5053107;28;20483;-80
2022/08/17 00:38:10;;;;;;;18.27;16.23;;;20.30;99.90;;;;;;5053026;28;20053;-80
2022/08/17 00:40:42;;;;;;;17.90;15.93;;;20.30;99.90;;;;;;5054175;28;20053;-80
2022/08/17 00:43:19;;;;;;;17.52;15.63;;;20.30;99.90;;;;;;5054373;28;20094;-80
2022/08/17 00:45:46;;;;;;;18.25;16.35;;;20.30;99.90;;;;;;5054262;28;20040;-80
2022/08/17 00:48:12;;;;;;;17.35;15.55;;;20.20;99.90;;;;;;5053598;28;20037;-80
2022/08/17 00:50:41;;;;;;;16.70;14.90;;;20.30;99.90;;;;;;5052984;28;20049;-80
2022/08/17 00:53:07;;;;;;;17.05;14.30;;;20.20;99.90;;;;;;5054021;28;20048;-81
2022/08/17 00:55:33;;;;;;;15.75;14.07;;;20.20;99.90;;;;;;5054008;28;20040;-81
2022/08/17 00:58:02;;;;;;;16.17;14.50;;;20.30;99.90;;;;;;5053976;28;20048;-80
2022/08/17 01:00:39;;;;;;;15.52;14.02;;;20.30;99.90;;;;;;5053731;28;20396;-80
2022/08/17 01:03:20;;;;;;;16.40;14.70;;;20.20;99.90;;;;;;5053912;28;20099;-80
2022/08/17 01:05:48;;;;;;;17.90;14.52;;;20.30;99.90;;;;;;5052676;28;20072;-80
2022/08/17 01:08:18;;;;;;;15.18;13.57;;;20.30;99.90;;;;;;5054171;28;20037;-80
2022/08/17 01:10:52;;;;;;;16.08;14.38;;;20.30;99.90;;;;;;5052703;28;20121;-80
2022/08/17 01:13:18;;;;;;;14.80;13.30;;;20.20;99.90;;;;;;5053827;28;20037;-81
2022/08/17 01:15:58;;;;;;;16.85;15.05;;;20.30;99.90;;;;;;5053591;28;20452;-80
2022/08/17 01:18:25;;;;;;;15.98;14.30;;;20.30;99.90;;;;;;5053532;28;20129;-80
2022/08/17 01:20:53;;;;;;;17.15;15.38;;;20.20;99.90;;;;;;5053564;28;20073;-80
2022/08/17 01:23:22;;;;;;;18.60;16.70;;;20.20;99.90;;;;;;5053588;28;20090;-81
2022/08/17 01:25:50;;;;;;;18.95;16.95;;;20.20;99.90;;;;;;5052229;28;20076;-81
2022/08/17 01:28:15;;;;;;;21.17;17.52;;;20.20;99.90;;;;;;5053543;28;20048;-80
2022/08/17 01:30:42;;;;;;;18.65;16.75;;;20.10;99.90;;;;;;5053527;28;20041;-80
2022/08/17 01:33:10;;;;;;;20.00;16.77;;;20.10;99.90;;;;;;5052150;28;20112;-80
2022/08/17 01:35:37;;;;;;;20.48;17.17;;;20.10;99.90;;;;;;5053760;28;20053;-80
2022/08/17 01:38:03;;;;;;;22.00;18.42;;;20.00;99.90;;;;;;5053343;28;20392;-80
2022/08/17 01:40:45;;;;;;;20.90;18.80;;;20.00;99.90;;;;;;5052146;28;20044;-80
2022/08/17 01:43:21;;;;;;;19.65;17.60;;;20.00;99.90;;;;;;5053510;28;20059;-80
2022/08/17 01:45:50;;;;;;;21.08;17.48;;;19.90;99.90;;;;;;5052046;28;20465;-80
2022/08/17 01:48:18;;;;;;;21.15;18.77;;;19.90;99.90;;;;;;5052336;28;20509;-80
2022/08/17 01:50:46;;;;;;;20.70;18.55;;;19.80;99.90;;;;;;5053269;28;20044;-80
2022/08/17 01:53:21;;;;;;;23.55;19.75;;;19.90;99.90;;;;;;5052064;28;20131;-82
2022/08/17 01:55:57;;;;;;;24.92;21.52;;;19.90;99.90;;;;;;5053180;28;20045;-81
2022/08/17 01:58:23;;;;;;;25.35;22.73;;;19.80;99.90;;;;;;5053321;28;20056;-81
2022/08/17 02:00:51;;;;;;;26.55;23.55;;;19.80;99.90;;;;;;5054696;28;20435;-81
2022/08/17 02:03:19;;;;;;;25.55;22.75;;;19.80;99.90;;;;;;5057086;28;20504;-81
2022/08/17 02:05:47;;;;;;;26.52;23.60;;;19.70;99.90;;;;;;5055881;28;20057;-81
2022/08/17 02:08:14;;;;;;;28.20;25.17;;;19.70;99.90;;;;;;5055647;28;20059;-81
2022/08/17 02:10:40;;;;;;;28.77;25.42;;;19.70;99.90;;;;;;5055923;28;20051;-81
2022/08/17 02:13:06;;;;;;;29.10;25.73;;;19.70;99.90;;;;;;5057044;28;20102;-81
2022/08/17 02:15:33;;;;;;;32.40;27.25;;;19.70;99.90;;;;;;5056753;28;20036;-81
2022/08/17 02:18:00;;;;;;;28.77;25.08;;;19.60;99.90;;;;;;5056887;28;20041;-81
2022/08/17 02:20:27;;;;;;;37.25;28.58;;;19.60;99.90;;;;;;5056470;28;20541;-81
2022/08/17 02:22:53;;;;;;;30.88;26.08;;;19.50;99.90;;;;;;5056863;28;20072;-81
2022/08/17 02:25:19;;;;;;;30.20;25.98;;;19.50;99.90;;;;;;5055447;28;20044;-81
2022/08/17 02:27:45;;;;;;;30.42;27.23;;;19.50;99.90;;;;;;5055262;28;20124;-80
2022/08/17 02:30:12;;;;;;;28.73;25.38;;;19.40;99.90;;;;;;5056759;28;20433;-81
2022/08/17 02:32:39;;;;;;;28.33;25.23;;;19.30;99.90;;;;;;5056685;28;20044;-81
2022/08/17 02:35:06;;;;;;;27.73;24.55;;;19.30;99.90;;;;;;5056586;28;20047;-81
2022/08/17 02:37:32;;;;;;;26.23;22.77;;;19.20;99.90;;;;;;5055146;28;20048;-81
2022/08/17 02:39:58;;;;;;;27.63;24.02;;;19.20;99.90;;;;;;5056460;28;20052;-82
2022/08/17 02:42:30;;;;;;;28.88;25.42;;;19.10;99.90;;;;;;5056541;28;20049;-80
2022/08/17 02:44:56;;;;;;;32.70;27.37;;;19.10;99.90;;;;;;5055399;28;20537;-81
2022/08/17 02:47:23;;;;;;;32.53;26.95;;;19.00;99.90;;;;;;5056385;28;20323;-82
2022/08/17 02:49:49;;;;;;;30.27;25.17;;;19.00;99.90;;;;;;5055222;28;20048;-81
2022/08/17 02:52:14;;;;;;;28.15;22.17;;;19.00;99.90;;;;;;5054923;28;20040;-80
2022/08/17 02:54:40;;;;;;;27.92;24.75;;;18.90;99.90;;;;;;5056267;28;20045;-79
2022/08/17 02:57:06;;;;;;;27.73;24.00;;;18.90;99.90;;;;;;5054776;28;20365;-80
2022/08/17 02:59:31;;;;;;;28.75;23.70;;;18.80;99.90;;;;;;5054743;28;20044;-79
2022/08/17 03:01:57;;;;;;;32.22;24.23;;;18.80;99.90;;;;;;5056056;28;20045;-80
2022/08/17 03:04:22;;;;;;;29.58;24.83;;;18.80;99.90;;;;;;5055845;28;20049;-79
2022/08/17 03:06:48;;;;;;;26.95;22.92;;;18.80;99.90;;;;;;5054876;28;20068;-79
2022/08/17 03:09:15;;;;;;;28.00;24.38;;;18.70;99.90;;;;;;5054579;28;20060;-79
2022/08/17 03:11:42;;;;;;;26.35;22.70;;;18.70;99.90;;;;;;5054168;28;20047;-79
2022/08/17 03:14:07;;;;;;;32.00;24.90;;;18.70;99.90;;;;;;5055900;28;20133;-80
2022/08/17 03:16:33;;;;;;;28.45;24.10;;;18.70;99.90;;;;;;5055768;28;20072;-80
2022/08/17 03:18:58;;;;;;;24.17;20.80;;;18.70;99.90;;;;;;5056266;28;20040;-80
2022/08/17 03:21:24;;;;;;;26.65;23.67;;;18.70;99.90;;;;;;5056226;28;20045;-80
2022/08/17 03:23:50;;;;;;;27.52;23.15;;;18.70;99.90;;;;;;5055646;28;20037;-80
2022/08/17 03:26:15;;;;;;;29.80;22.05;;;18.70;99.90;;;;;;5055411;28;20063;-80
2022/08/17 03:28:41;;;;;;;29.45;23.60;;;18.60;99.90;;;;;;5055544;28;20045;-80
2022/08/17 03:31:07;;;;;;;31.73;24.92;;;18.70;99.90;;;;;;5055424;28;20115;-80
2022/08/17 03:33:33;;;;;;;29.50;25.80;;;18.60;99.90;;;;;;5055217;28;20095;-80
2022/08/17 03:35:58;;;;;;;31.63;27.00;;;18.60;99.90;;;;;;5053997;28;20052;-80
2022/08/17 03:38:25;;;;;;;28.98;25.48;;;18.60;99.90;;;;;;5055469;28;20041;-80
2022/08/17 03:40:51;;;;;;;33.53;27.80;;;18.60;99.90;;;;;;5055305;28;20040;-79
2022/08/17 03:43:20;;;;;;;33.60;27.75;;;18.70;99.90;;;;;;5055316;28;20094;-79
2022/08/17 03:57:06;;;;;;;46.00;33.45;;;18.70;99.90;;;;;;5055079;28;20052;-80
2022/08/17 03:59:33;;;;;;;46.42;32.83;;;18.80;99.90;;;;;;5053616;28;20049;-81
2022/08/17 04:02:11;;;;;;;42.45;30.98;;;18.80;99.90;;;;;;5053680;28;20400;-81
2022/08/17 04:04:38;;;;;;;42.75;31.27;;;18.80;99.90;;;;;;5054895;28;20044;-81
2022/08/17 04:07:04;;;;;;;42.67;31.38;;;18.80;99.90;;;;;;5054820;28;20098;-80
2022/08/17 04:09:30;;;;;;;40.15;31.25;;;18.80;99.90;;;;;;5055081;28;20105;-81
2022/08/17 04:11:56;;;;;;;43.90;31.05;;;18.80;99.90;;;;;;5054415;28;20542;-81
2022/08/17 04:14:22;;;;;;;41.45;31.13;;;18.80;99.90;;;;;;5053940;28;20033;-81
2022/08/17 04:16:47;;;;;;;45.92;33.42;;;18.80;99.90;;;;;;5053403;28;20059;-81
2022/08/17 04:19:13;;;;;;;43.00;30.83;;;18.90;99.90;;;;;;5054111;28;20392;-79
2022/08/17 04:21:38;;;;;;;41.25;30.70;;;18.90;99.90;;;;;;5054341;28;20036;-79
2022/08/17 04:24:04;;;;;;;41.65;31.65;;;18.80;99.90;;;;;;5053638;28;20033;-80
2022/08/17 04:26:30;;;;;;;43.47;30.67;;;18.80;99.90;;;;;;5054206;28;20056;-80
2022/08/17 04:28:57;;;;;;;43.72;31.00;;;18.80;99.90;;;;;;5053156;28;20555;-80
2022/08/17 04:31:25;;;;;;;38.47;30.60;;;18.80;99.90;;;;;;5054114;28;20492;-80
2022/08/17 04:33:50;;;;;;;38.88;30.13;;;18.70;99.90;;;;;;5052951;28;20098;-80
2022/08/17 04:36:16;;;;;;;38.78;28.85;;;18.70;99.90;;;;;;5054256;28;20041;-81
2022/08/17 04:38:44;;;;;;;41.75;29.17;;;18.80;99.90;;;;;;5054214;28;20052;-80
2022/08/17 04:43:57;;;;;;;38.38;27.80;;;18.60;99.90;;;;;;5052684;28;20546;-80
2022/08/17 04:46:34;;;;;;;34.05;27.17;;;18.50;99.90;;;;;;5052532;28;20483;-81
2022/08/17 04:49:02;;;;;;;34.83;26.88;;;18.60;99.90;;;;;;5052670;28;20040;-81
2022/08/17 04:51:34;;;;;;;30.67;26.45;;;18.50;99.90;;;;;;5053902;28;20037;-81
2022/08/17 04:54:12;;;;;;;35.95;27.67;;;18.50;99.90;;;;;;5053932;28;20188;-80
2022/08/17 04:56:38;;;;;;;32.08;26.88;;;18.50;99.90;;;;;;5052487;28;20506;-81
2022/08/17 04:59:08;;;;;;;35.28;28.27;;;18.60;99.90;;;;;;5052628;28;20128;-82
2022/08/17 05:01:37;;;;;;;33.40;27.92;;;18.60;99.90;;;;;;5053843;28;20041;-82
2022/08/17 05:04:06;;;;;;;37.47;29.50;;;18.60;99.90;;;;;;5053794;28;20107;-81
2022/08/17 05:06:32;;;;;;;37.35;29.83;;;18.70;99.90;;;;;;5053833;28;20041;-81
2022/08/17 05:08:59;;;;;;;44.60;32.17;;;18.70;99.90;;;;;;5053736;28;20048;-81
2022/08/17 05:11:28;;;;;;;43.72;32.88;;;18.80;99.90;;;;;;5053487;28;20049;-80
2022/08/17 05:13:55;;;;;;;39.97;30.52;;;18.80;99.90;;;;;;5053648;28;20055;-81
2022/08/17 05:16:22;;;;;;;39.08;30.35;;;18.90;99.90;;;;;;5053434;28;20496;-80
2022/08/17 05:18:48;;;;;;;39.03;30.17;;;18.90;99.90;;;;;;5053643;28;20048;-81
2022/08/17 05:21:15;;;;;;;42.03;32.15;;;18.90;99.90;;;;;;5053251;28;20049;-81
2022/08/17 05:23:43;;;;;;;44.33;33.25;;;18.90;99.90;;;;;;5052286;28;20079;-81
2022/08/17 05:26:12;;;;;;;43.83;32.90;;;19.00;99.90;;;;;;5051867;28;20053;-81
2022/08/17 05:28:37;;;;;;;44.92;34.63;;;19.00;99.90;;;;;;5053528;28;20175;-80
2022/08/17 05:31:03;;;;;;;40.47;31.55;;;19.10;99.90;;;;;;5052247;28;20120;-81
2022/08/17 05:33:36;;;;;;;40.60;31.73;;;19.10;99.90;;;;;;5052288;28;20400;-81
2022/08/17 05:36:04;;;;;;;45.33;34.40;;;19.10;99.90;;;;;;5056936;28;20048;-80
2022/08/17 05:38:31;;;;;;;43.22;34.15;;;19.20;99.90;;;;;;5057321;28;20485;-80
2022/08/17 05:40:57;;;;;;;41.92;31.77;;;19.20;99.90;;;;;;5056002;28;20063;-81
2022/08/17 05:43:28;;;;;;;41.40;31.23;;;19.30;99.90;;;;;;5057509;28;20037;-80
2022/08/17 05:46:23;;;;;;;43.20;32.47;;;19.40;99.90;;;;;;5057521;28;20040;-79
2022/08/17 05:49:00;;;;;;;40.80;30.67;;;19.40;99.90;;;;;;5056186;28;20085;-80
2022/08/17 05:52:03;;;;;;;41.03;31.65;;;19.50;99.90;;;;;;5056330;28;20056;-80
2022/08/17 05:54:38;;;;;;;;;;;19.60;99.90;;;;;;5057719;28;20041;-80
2022/08/17 05:57:18;;;;;;;33.50;25.55;;;19.60;99.90;;;;;;5057305;28;20016;-80
2022/08/17 06:00:03;;;;;;;35.53;27.55;;;19.70;99.90;;;;;;5056903;28;20107;-81
2022/08/17 06:02:54;;;;;;;33.45;27.23;;;19.70;99.90;;;;;;5057283;28;20045;-81
2022/08/17 06:05:31;;;;;;;40.53;28.40;;;19.80;99.90;;;;;;5055881;28;20052;-79
2022/08/17 06:08:20;;;;;;;39.40;29.05;;;19.90;99.90;;;;;;5057240;28;20037;-80
2022/08/17 06:11:18;;;;;;;35.13;28.60;;;20.00;99.90;;;;;;5056250;28;20041;-80
2022/08/17 06:13:59;;;;;;;38.00;28.95;;;20.00;99.90;;;;;;5055776;28;20049;-80
2022/08/17 06:16:30;;;;;;;34.13;27.05;;;20.10;99.90;;;;;;5056796;28;20048;-79
2022/08/17 06:19:17;;;;;;;32.58;26.00;;;20.10;99.90;;;;;;5056832;28;20041;-80
2022/08/17 06:21:46;;;;;;;28.40;25.35;;;20.10;99.90;;;;;;5050113;28;20049;-78
2022/08/17 06:24:37;;;;;;;30.48;25.48;;;20.10;99.90;;;;;;5046845;28;20060;-79
2022/08/17 06:27:58;;;;;;;31.13;24.42;;;20.20;99.90;;;;;;5054934;28;20106;-79
2022/08/17 06:30:28;;;;;;;27.60;24.52;;;20.20;99.90;;;;;;4995327;28;20041;-80
2022/08/17 06:33:01;;;;;;;26.90;23.35;;;20.20;99.90;;;;;;5055151;28;20037;-79
2022/08/17 06:35:46;;;;;;;26.90;24.00;;;20.30;99.90;;;;;;5056245;28;20492;-79
2022/08/17 06:38:31;;;;;;;30.60;23.48;;;20.20;99.90;;;;;;5056433;28;20045;-79
2022/08/17 06:41:23;;;;;;;29.85;25.40;;;20.30;99.90;;;;;;5056463;28;20075;-78
2022/08/17 06:44:22;;;;;;;29.63;23.40;;;20.30;99.90;;;;;;5056220;28;20033;-79
2022/08/17 06:46:58;;;;;;;30.40;24.45;;;20.40;99.90;;;;;;5054563;28;20053;-79
2022/08/17 06:49:39;;;;;;;27.55;24.30;;;20.40;99.90;;;;;;5055941;28;20125;-79
2022/08/17 06:52:16;;;;;;;26.27;23.33;;;20.30;99.90;;;;;;5055627;28;20057;-79
2022/08/17 06:55:12;;;;;;;24.92;20.40;;;20.40;99.90;;;;;;5056094;28;20052;-79
2022/08/17 06:57:51;;;;;;;24.00;21.15;;;20.40;99.90;;;;;;5054772;28;20044;-79
2022/08/17 07:00:23;;;;;;;26.02;20.45;;;20.40;99.90;;;;;;5055771;28;20090;-79
2022/08/17 07:02:57;;;;;;;27.25;23.00;;;20.40;99.90;;;;;;5055934;28;20145;-79
2022/08/17 07:05:45;;;;;;;23.30;20.85;;;20.40;99.90;;;;;;5055636;28;20084;-79
2022/08/17 07:08:15;;;;;;;27.70;23.50;;;20.40;99.90;;;;;;5054368;28;20049;-78
2022/08/17 07:10:51;;;;;;;27.60;22.10;;;20.40;99.90;;;;;;5054860;28;20135;-78
2022/08/17 07:13:44;;;;;;;24.75;21.20;;;20.40;99.90;;;;;;5055448;28;20044;-78
2022/08/17 07:16:25;;;;;;;26.27;23.45;;;20.40;99.90;;;;;;5054408;28;20049;-79
2022/08/17 07:18:53;;;;;;;24.85;21.35;;;20.40;99.90;;;;;;5055647;28;20033;-78
2022/08/17 07:21:44;;;;;;;25.60;22.90;;;20.50;99.90;;;;;;5053967;28;20060;-79
2022/08/17 07:24:38;;;;;;;26.00;22.58;;;20.60;99.90;;;;;;5054067;28;20045;-79
2022/08/17 07:27:05;;;;;;;31.23;23.15;;;20.50;99.90;;;;;;5054136;28;20065;-79
2022/08/17 07:29:41;;;;;;;24.80;21.63;;;20.60;99.90;;;;;;5052169;28;20049;-80
2022/08/17 07:32:08;;;;;;;30.95;25.88;;;20.60;99.90;;;;;;5034294;28;20083;-79
2022/08/17 07:34:59;;;;;;;24.85;22.23;;;20.70;99.90;;;;;;5033956;28;20052;-79
2022/08/17 07:37:24;;;;;;;29.92;24.83;;;20.70;99.90;;;;;;5037415;28;20462;-79
2022/08/17 07:39:50;;;;;;;27.95;23.73;;;20.80;99.90;;;;;;5045575;28;20045;-80
2022/08/17 07:42:16;;;;;;;30.55;26.38;;;20.90;99.90;;;;;;5054934;28;20041;-79
2022/08/17 07:44:52;;;;;;;27.67;24.77;;;20.90;99.90;;;;;;5054947;28;20504;-79
2022/08/17 07:50:26;;;;;;;29.60;23.65;;;20.90;99.90;;;;;;5053462;28;20088;-79
2022/08/17 07:52:51;;;;;;;28.83;23.98;;;21.00;99.90;;;;;;5054971;28;20100;-80
2022/08/17 07:55:30;;;;;;;25.25;22.65;;;21.00;99.90;;;;;;5053767;28;20057;-80
2022/08/17 07:57:57;;;;;;;27.08;22.13;;;21.10;99.90;;;;;;5038169;28;20042;-80
2022/08/17 08:00:23;;;;;;;24.83;22.23;;;21.10;99.90;;;;;;5046570;28;20048;-79
2022/08/17 08:03:13;;;;;;;23.75;21.25;;;21.20;99.90;;;;;;5054567;28;20067;-79
2022/08/17 08:05:51;;;;;;;24.30;20.65;;;21.20;99.90;;;;;;5053825;28;20052;-79
2022/08/17 08:08:41;;;;;;;21.92;19.73;;;21.20;99.90;;;;;;5052510;28;20053;-78
2022/08/17 08:11:16;;;;;;;24.02;18.85;;;21.20;99.90;;;;;;5053455;28;20059;-78
2022/08/17 08:13:44;;;;;;;21.45;19.13;;;21.20;99.90;;;;;;5053357;28;20071;-78
2022/08/17 08:16:16;;;;;;;20.45;18.35;;;21.20;99.90;;;;;;5054272;28;20037;-79
2022/08/17 08:18:45;;;;;;;19.30;16.87;;;21.30;99.90;;;;;;5054210;28;20056;-79
2022/08/17 08:21:47;;;;;;;23.05;18.67;;;21.30;99.90;;;;;;5054258;28;20296;-79
2022/08/17 08:24:19;;;;;;;19.17;17.20;;;21.40;99.90;;;;;;5050251;28;20094;-80
2022/08/17 08:27:15;;;;;;;19.63;17.60;;;21.40;99.90;;;;;;5038008;28;20068;-82
2022/08/17 08:30:04;;;;;;;23.65;17.80;;;21.50;99.90;;;;;;5032908;28;20049;-80
2022/08/17 08:32:54;;;;;;;18.38;16.08;;;21.50;99.90;;;;;;5034013;28;20033;-80
2022/08/17 08:35:44;;;;;;;21.17;17.00;;;21.50;99.90;;;;;;5032259;28;20080;-80
2022/08/17 08:38:35;;;;;;;19.02;16.23;;;21.50;99.90;;;;;;5032145;28;20370;-82
2022/08/17 08:41:07;;;;;;;18.45;16.55;;;21.50;99.90;;;;;;5032478;28;20393;-83
2022/08/17 08:43:59;;;;;;;17.02;15.18;;;21.40;99.90;;;;;;5032768;28;20449;-81
2022/08/17 08:46:39;;;;;;;15.63;14.07;;;21.50;99.90;;;;;;5036748;28;20067;-80
2022/08/17 08:49:25;;;;;;;16.25;13.52;;;21.50;99.90;;;;;;5050969;28;20924;-80
2022/08/17 08:51:54;;;;;;;16.88;14.95;;;21.50;99.90;;;;;;5053360;28;20111;-83
2022/08/17 08:54:58;;;;;;;16.65;14.95;;;21.50;99.90;;;;;;5053472;28;20048;-81
2022/08/17 08:57:31;;;;;;;18.35;15.35;;;21.50;99.90;;;;;;5030204;28;20049;-80
2022/08/17 09:00:08;;;;;;;17.63;15.68;;;21.50;99.90;;;;;;5031541;28;20041;-80
2022/08/17 09:02:39;;;;;;;17.00;15.23;;;21.40;99.90;;;;;;5032092;28;20056;-79
2022/08/17 09:05:18;;;;;;;19.25;17.20;;;21.40;99.90;;;;;;5032333;28;20105;-78
2022/08/17 09:08:07;;;;;;;18.83;16.98;;;21.40;99.90;;;;;;5032114;28;20050;-79
2022/08/17 09:10:57;;;;;;;23.67;19.08;;;21.40;99.90;;;;;;5013268;28;20053;-80
2022/08/17 09:13:46;;;;;;;19.40;17.55;;;21.30;99.90;;;;;;5033382;28;20049;-75
2022/08/17 09:16:28;;;;;;;22.25;18.83;;;21.30;99.90;;;;;;5033568;28;20057;-78
2022/08/17 09:19:01;;;;;;;19.65;17.63;;;21.20;99.90;;;;;;5032722;28;20485;-79
2022/08/17 09:21:44;;;;;;;27.58;22.35;;;21.20;99.90;;;;;;5033133;28;20045;-76
2022/08/17 09:24:22;;;;;;;24.92;21.02;;;21.20;99.90;;;;;;5033222;28;20493;-76
2022/08/17 09:27:22;;;;;;;23.33;20.00;;;21.20;99.90;;;;;;5031743;28;20485;-76
2022/08/17 09:29:57;;;;;;;24.15;21.55;;;21.10;99.90;;;;;;5025100;28;20140;-83
2022/08/17 09:32:42;;;;;;;25.00;21.60;;;21.00;99.90;;;;;;5033163;28;20045;-82
2022/08/17 09:35:21;;;;;;;25.80;23.17;;;21.00;99.90;;;;;;5032780;28;20030;-84
2022/08/17 09:38:02;;;;;;;26.05;23.33;;;21.00;99.90;;;;;;5031727;28;20053;-84
2022/08/17 09:40:39;;;;;;;26.40;23.52;;;21.00;99.90;;;;;;5031469;28;20456;-84
2022/08/17 09:43:32;;;;;;;26.38;23.35;;;20.90;99.90;;;;;;5032899;28;20084;-84
2022/08/17 09:46:10;;;;;;;26.60;22.50;;;20.90;99.90;;;;;;5031934;28;20053;-84
2022/08/17 09:48:54;;;;;;;25.88;23.00;;;21.00;99.90;;;;;;5032881;28;20064;-84
2022/08/17 09:51:38;;;;;;;25.60;22.38;;;21.00;99.90;;;;;;5032293;28;20089;-86
2022/08/17 09:54:22;;;;;;;24.25;21.52;;;21.00;99.90;;;;;;5031883;28;20060;-78
2022/08/17 09:57:17;;;;;;;26.63;20.25;;;21.10;99.90;;;;;;5033258;28;20488;-77
2022/08/17 09:59:52;;;;;;;21.90;19.55;;;21.10;99.90;;;;;;5031273;28;20489;-76
2022/08/17 10:02:52;;;;;;;24.45;18.77;;;21.10;99.90;;;;;;5031357;28;20389;-78
2022/08/17 10:05:28;;;;;;;21.10;18.75;;;21.20;99.90;;;;;;5031627;28;20056;-76
2022/08/17 10:08:05;;;;;;;23.35;20.38;;;21.20;99.90;;;;;;5031574;28;20049;-75
2022/08/17 10:11:04;;;;;;;23.23;19.92;;;21.20;99.90;;;;;;5031070;28;20064;-75
2022/08/17 10:13:51;;;;;;;22.95;19.90;;;21.30;99.90;;;;;;5008856;28;20172;-76
2022/08/17 10:16:42;;;;;;;22.90;18.00;;;21.40;99.90;;;;;;5032635;28;20501;-76
2022/08/17 10:19:20;;;;;;;21.30;19.08;;;21.40;99.90;;;;;;5032347;28;20500;-76
2022/08/17 10:27:42;;;;;;;20.05;17.92;;;21.50;99.90;;;;;;5036107;28;20056;-76
2022/08/17 10:30:10;;;;;;;23.77;19.63;;;21.50;99.90;;;;;;5036322;28;20045;-77
2022/08/17 10:33:02;;;;;;;20.73;18.63;;;21.40;99.90;;;;;;5035778;28;20049;-86
2022/08/17 10:36:00;;;;;;;21.27;18.00;;;21.50;99.90;;;;;;5035016;28;20049;-85
2022/08/17 10:38:39;;;;;;;19.23;17.23;;;21.40;99.90;;;;;;5035868;28;20049;-84
2022/08/17 10:41:26;;;;;;;19.85;17.75;;;21.40;99.90;;;;;;5034356;28;20129;-86
2022/08/17 10:44:23;;;;;;;20.92;18.77;;;21.40;99.90;;;;;;5036126;28;20056;-78
2022/08/17 10:47:13;;;;;;;21.20;19.00;;;21.30;99.90;;;;;;5034541;28;20053;-77
2022/08/17 10:49:48;;;;;;;21.60;19.30;;;21.40;99.90;;;;;;5034808;28;20053;-77
2022/08/17 10:52:20;;;;;;;24.92;18.60;;;21.40;99.90;;;;;;5035827;28;20130;-77
2022/08/17 10:54:55;;;;;;;19.60;17.58;;;21.50;99.90;;;;;;5034658;28;20060;-77
2022/08/17 10:57:32;;;;;;;18.85;16.23;;;21.50;99.90;;;;;;5035841;28;20049;-77
2022/08/17 11:00:16;;;;;;;17.58;15.77;;;21.60;99.90;;;;;;5035316;28;20045;-76
2022/08/17 11:02:56;;;;;;;18.42;16.27;;;21.60;99.90;;;;;;5055263;28;20178;-77
2022/08/17 11:06:20;;;;;;;16.83;14.15;;;21.70;99.90;;;;;;5055589;28;20512;-78
2022/08/17 11:09:03;;;;;;;15.88;14.30;;;21.80;99.90;;;;;;5033490;28;20059;-77
2022/08/17 11:11:59;;;;;;;17.50;14.38;;;21.80;99.90;;;;;;5053516;28;20049;-78
2022/08/17 11:14:46;;;;;;;15.25;13.45;;;21.70;99.90;;;;;;5055499;28;20168;-78
2022/08/17 11:17:42;;;;;;;17.80;13.70;;;21.70;99.90;;;;;;5055461;28;20555;-78
2022/08/17 11:20:31;;;;;;;16.95;14.73;;;21.70;99.90;;;;;;5054270;28;20052;-78
2022/08/17 11:23:38;;;;;;;17.30;14.73;;;21.60;99.90;;;;;;5055207;28;20588;-78
2022/08/17 11:26:24;;;;;;;15.30;13.20;;;21.70;99.90;;;;;;5035000;28;20045;-78
2022/08/17 11:28:55;;;;;;;14.98;13.48;;;21.70;99.90;;;;;;5055451;28;20119;-77
2022/08/17 11:31:41;;;;;;;15.40;13.68;;;21.70;99.90;;;;;;5054856;28;20048;-78
2022/08/17 11:34:21;;;;;;;16.10;14.40;;;21.60;99.90;;;;;;5054693;28;20051;-78
2022/08/17 11:37:07;;;;;;;16.98;13.48;;;21.80;99.90;;;;;;5053747;28;20055;-79
2022/08/17 11:39:47;;;;;;;17.95;14.18;;;21.90;99.90;;;;;;5055572;28;20110;-78
2022/08/17 11:42:33;;;;;;;17.42;13.63;;;22.10;99.90;;;;;;5054367;28;20059;-78
2022/08/17 11:45:04;;;;;;;18.33;13.40;;;22.20;99.90;;;;;;5055378;28;20107;-78
2022/08/17 11:53:01;;;;;;;14.88;13.32;;;22.50;99.90;;;;;;5053694;28;20045;-79
2022/08/17 11:55:36;;;;;;;13.55;12.18;;;22.60;99.90;;;;;;5054746;28;20043;-79
2022/08/17 11:58:26;;;;;;;13.75;12.27;;;22.70;99.90;;;;;;5053608;28;20049;-79
2022/08/17 12:00:57;;;;;;;15.00;11.68;;;22.80;99.90;;;;;;5054940;28;20060;-82
2022/08/17 12:03:32;;;;;;;13.88;11.75;;;22.90;99.90;;;;;;5054743;28;20055;-79
2022/08/17 12:06:26;;;;;;;13.05;11.45;;;23.00;99.90;;;;;;5053842;28;20060;-78
2022/08/17 12:09:10;;;;;;;13.93;10.95;;;22.90;99.90;;;;;;5054649;28;20137;-79
2022/08/17 12:12:00;;;;;;;13.52;11.07;;;23.10;99.90;;;;;;5054594;28;20056;-79
2022/08/17 12:14:29;;;;;;;12.85;10.70;;;23.20;99.90;;;;;;5054561;28;20484;-79
2022/08/17 12:17:03;;;;;;;12.00;10.65;;;23.20;99.90;;;;;;5054639;28;20107;-79
2022/08/17 12:19:32;;;;;;;12.20;10.63;;;23.20;99.90;;;;;;5054484;28;20053;-79
2022/08/17 12:22:16;;;;;;;12.25;10.75;;;23.30;99.90;;;;;;5054201;28;20045;-79
2022/08/17 12:24:44;;;;;;;12.98;10.82;;;23.10;99.90;;;;;;5053321;28;20049;-79
2022/08/17 12:27:11;;;;;;;15.02;11.20;;;23.00;99.90;;;;;;5054342;28;20412;-79
2022/08/17 12:29:41;;;;;;;12.77;10.52;;;23.00;99.90;;;;;;5054396;28;20049;-79
2022/08/17 12:32:16;;;;;;;12.15;10.65;;;23.10;99.90;;;;;;5052990;28;20049;-78
2022/08/17 12:34:45;;;;;;;13.77;10.93;;;22.90;99.90;;;;;;5054161;28;20472;-78
2022/08/17 12:37:29;;;;;;;14.70;10.93;;;22.70;99.90;;;;;;5053033;28;20102;-79
2022/08/17 12:40:21;;;;;;;12.02;10.82;;;22.60;99.90;;;;;;5053942;28;20106;-78
2022/08/17 12:43:20;;;;;;;11.63;10.38;;;22.60;99.90;;;;;;5054004;28;20040;-79
2022/08/17 12:45:59;;;;;;;11.93;10.73;;;22.50;99.90;;;;;;5053389;28;20044;-78
2022/08/17 12:48:27;;;;;;;13.00;10.15;;;22.30;99.90;;;;;;5053925;28;20175;-78
2022/08/17 12:51:01;;;;;;;15.05;10.68;;;22.30;99.90;;;;;;5052538;28;20071;-78
2022/08/17 12:53:33;;;;;;;12.30;10.75;;;22.30;99.90;;;;;;5053871;28;20044;-78
2022/08/17 12:56:05;;;;;;;13.98;10.40;;;22.10;99.90;;;;;;5053977;28;20032;-78
2022/08/17 12:58:35;;;;;;;13.02;10.15;;;22.10;99.90;;;;;;5054076;28;20055;-79
2022/08/17 13:01:08;;;;;;;11.32;9.82;;;22.10;99.90;;;;;;5052335;28;20551;-80
2022/08/17 13:03:39;;;;;;;12.38;10.00;;;22.20;99.90;;;;;;5053918;28;20045;-77
2022/08/17 13:06:08;;;;;;;13.85;10.23;;;22.30;99.90;;;;;;5053873;28;20029;-78
2022/08/17 13:08:40;;;;;;;11.55;9.85;;;22.30;99.90;;;;;;5053814;28;20047;-78
2022/08/17 13:11:08;;;;;;;10.90;9.80;;;22.10;99.90;;;;;;5053637;28;20392;-78
2022/08/17 13:13:37;;;;;;;13.35;10.52;;;22.20;99.90;;;;;;5053460;28;20566;-79
2022/08/17 13:16:15;;;;;;;11.07;9.43;;;22.00;99.90;;;;;;5053715;28;20032;-77
2022/08/17 13:18:50;;;;;;;14.02;10.02;;;22.10;99.90;;;;;;5053531;28;20523;-77
2022/08/17 13:21:21;;;;;;;12.13;10.45;;;21.90;99.90;;;;;;5053633;28;20049;-78
2022/08/17 13:24:26;;;;;;;12.23;10.55;;;22.00;99.90;;;;;;5053643;28;20041;-80
2022/08/17 13:26:58;;;;;;;12.07;10.85;;;22.00;99.90;;;;;;5053137;28;20419;-75
2022/08/17 13:29:43;;;;;;;13.25;10.55;;;21.90;99.90;;;;;;5052832;28;20045;-76
2022/08/17 13:32:12;;;;;;;11.60;9.40;;;21.90;99.90;;;;;;5043405;28;20053;-75
2022/08/17 13:34:44;;;;;;;12.88;10.40;;;22.00;99.90;;;;;;5046230;28;20507;-75
2022/08/17 13:37:25;;;;;;;13.68;10.50;;;21.90;99.90;;;;;;5033258;28;20061;-78